LFRSLFRV

Guest
Details From LFRS - Nantes_Atlantique
To LFRV - Vannes Meucon
Flight Number -
Tags generated
Created
Modified
Stats Distance 56 nm / 105 km
Max Altitude 100 ft / 30 m
Waypoints 3
Social Downloads 2
Likes 0
Share VATSIM

Download

Looking for another format? Having issues loading an existing format? Contact us
Advertisement - Login to hide

Notes

Basic altitude profile: - Ascent Rate: 2500ft/min - Ascent Speed: 250kts - Cruise Altitude: 35000ft - Cruise Speed: 420kts - Descent Rate: 1500ft/min - Descent Speed: 250kts

Route

LFRS NTS LFRV

ID Type Via Altitude Latitude Longitude Leg Dist Tot Dist Heading (true) Name
O LFRS APT - 0 ft / 0 m 47.15604˚ -1.61119˚ - 0 nm - Nantes_Atlantique
NTS VOR - 100 ft / 30 m 47.16086˚ -1.61296˚ 0 nm 0 nm 346° / 346° NANTES ATLANTIQUE VOR-DME
O LFRV APT - 0 ft / 0 m 47.72326˚ -2.71851˚ 56 nm 56 nm 307° / 307° Vannes Meucon

Altitude Profile

Advertisement - Login to hide

LFRS

Details ICAO LFRS (NTE)
Name Nantes_Atlantique
Region France
Timezone Europe/Paris (UTC+1.0)
Stats Elevation 89 ft / 27 m (AMSL)
Location 47.156040° -1.611186°
Runways 2
Magnetic Variation 0.511° W

METAR

LFRS 132030Z AUTO 28013KT 9999 SCT029 BKN036 BKN044 10/07 Q1006 TEMPO 27020G35KT

Decode

TAF

TAF TAF LFRS 131700Z 1318/1424 26015G25KT 9999 -RA BKN014 OVC040 TEMPO 1318/1319 3000 RA OVC005 TEMPO 1318/1401 27020G35KT BECMG 1318/1320 NSW BKN015 BKN040 TEMPO 1323/1406 3000 SHRA BKN010 SCT015TCU TEMPO 1410/1420 26025G37KT SHRA BKN020TCU PROB30 TEMPO 1413/1418 3000 TSRA SCT015CB

Decode

Departure Runways

ID Width Length Bearing (true) Bearing (mag) Surface Threshold Offset Overrun Length
03 148 ft / 45 m 9,526 ft / 2,903 m 27.35° 27.86° Asphalt 0 ft / 0 m 0 ft / 0 m
13 100 ft / 30 m 1,999 ft / 609 m 125.55° 126.06° Concrete 0 ft / 0 m 0 ft / 0 m
21 148 ft / 45 m 9,526 ft / 2,903 m 207.37° 207.88° Asphalt 689 ft / 210 m 0 ft / 0 m
31 100 ft / 30 m 1,999 ft / 609 m 305.56° 306.07° Concrete 0 ft / 0 m 0 ft / 0 m

LFRV

Details ICAO LFRV (VNE)
Name Vannes Meucon
Region France
Timezone Europe/Paris (UTC+1.0)
Stats Elevation 439 ft / 134 m (AMSL)
Location 47.723264° -2.718513°
Runways 1
Magnetic Variation 0.922° W

METAR

LFRV 132030Z AUTO 27012KT 240V300 9999 FEW030 OVC220 09/05 Q1005

Decode

TAF

Not found

Destination Runways

ID Width Length Bearing (true) Bearing (mag) Surface Threshold Offset Overrun Length
04 148 ft / 45 m 5,006 ft / 1,526 m 39.13° 40.05° Asphalt 0 ft / 0 m 0 ft / 0 m
22 148 ft / 45 m 5,006 ft / 1,526 m 219.14° 220.06° Asphalt 0 ft / 0 m 0 ft / 0 m

Approach Navaids

Runway Type Ident Frequency Range Bearing (true) Bearing (mag) Slope Elevation
22 Localiser VNS 110.70 MHz 18 nm / 33 km 219.13° 220.06° - 432 ft / 132 m (AMSL)